Delphia, Kentucky
Current Conditions -  °F | °C
As of 4:55 AM on Tuesday 21 Oct 2014 (Local Time) from KI35 Reporting Station
Overcast Overcast  
Wind Chill: 46°   Ceiling: 2000
Heat Index: 48°   Visibility: 10mi
Dew Point: 48°   Wind: 5mph
Humidity: 100%   Direction: 280°W
Pressure: 29.97"   Gusts: NA
Location:  37.03°N, 83.09°W
Report Text: KI35 210855Z AUTO 28004KT 10SM OVC020 09/09 A2997 RMK AO1
Loading
Personal Weather Stations






























Interactive Weather Map
Tropical Storm Tracking
New forecast layout! Learn more

10-Day Weather Forecast

Advertisements
Track Severe Weather on mobile